Apollo Beach, FL

7:14 AM EST on January 25, 2015 (GMT -0500)
Bimini Bay | Change Station
CLOSE
Current Station
Personal Weather Station
Location: Apollo Beach, FL
Elevation: 16 ft
Nearby Weather Stations

Elev 16 ft 27.77 °N, 82.40 °W | Updated 1 second ago

Clear
Clear
48.2 °F
Feels Like 46 °F
N
4.7
Wind Variable Wind from North
Gusts 5.4 mph

Today
High -- | Low -- °F
--% Chance of Precip.
Yesterday
High -- | Low -- °F
Precip. -- in
7:19 AM 6:04 PM
Waxing Crescent, 31% visible
Pressure 30.11 in
Visibility 10.0 miles
Clouds Clear
Windchill 46 °F
Dew Point 45 °F
Humidity 88%
Rainfall 0.00 in
Snow Depth Not available.
UV 0 out of 12
Pollen 1.80 out of 12
Air Quality Not available.
Flu Activity Not available.
METAR KMCF 251158Z AUTO 03005KT 10SM CLR 08/07 A3010 RMK AO2 SLP196 T00830072 10096 20067 52017

More Conditions Fewer Conditions

Pressure 30.11 in
Visibility 10.0 miles
Clouds Clear
Windchill 46 °F
Dew Point 45 °F
Humidity 88%
Rainfall 0.00 in
Snow Depth Not available.
UV 0 out of 12
Pollen 1.80 out of 12
Air Quality Not available.
Flu Activity Not available.
METAR KMCF 251158Z AUTO 03005KT 10SM CLR 08/07 A3010 RMK AO2 SLP196 T00830072 10096 20067 52017

More Conditions Fewer Conditions

10-Day Weather Forecast

Almanac

Astronomy

Jan. 25, 2015 Rise Set
Actual Time
Civil Twilight
Nautical Twilight
Astronomical Twilight
Moon
Length of Visible Light
Length of Day
Tomorrow will be .
, % of the Moon is Illuminated

Today's Extremes

State Highs State Lows

Community

WunderPhotos

Upload Photos

1,789,873 photos uploaded!

WunderBlogs® & News

Nearby

Air Quality

  Air Quality AQ Index Pollutant
Not available.

Snow Depth

Station Depth Elevation

Earthquake Activity

City Distance Mag. Time & Date
Minimum magnitude displayed is 2.5.

Coastal Water Temperatures

Place Temperature

Nearby Weather Stations